sensor_id;sensor_type;location;lat;lon;timestamp;temperature;humidity
15937;DHT22;9163;48.818;8.976;2023-07-16T00:01:16;19.00;99.90
15937;DHT22;9163;48.818;8.976;2023-07-16T00:03:43;18.90;99.90
15937;DHT22;9163;48.818;8.976;2023-07-16T00:06:10;18.80;99.90
15937;DHT22;9163;48.818;8.976;2023-07-16T00:08:38;18.60;99.90
15937;DHT22;9163;48.818;8.976;2023-07-16T00:11:05;18.50;99.90
15937;DHT22;9163;48.818;8.976;2023-07-16T00:13:34;18.40;99.90
15937;DHT22;9163;48.818;8.976;2023-07-16T00:16:01;18.30;99.90
15937;DHT22;9163;48.818;8.976;2023-07-16T00:18:28;18.30;99.90
15937;DHT22;9163;48.818;8.976;2023-07-16T00:20:56;18.20;99.90
15937;DHT22;9163;48.818;8.976;2023-07-16T00:23:24;18.20;99.90
15937;DHT22;9163;48.818;8.976;2023-07-16T00:25:51;18.30;99.90
15937;DHT22;9163;48.818;8.976;2023-07-16T00:28:18;18.30;99.90
15937;DHT22;9163;48.818;8.976;2023-07-16T00:30:47;18.30;99.90
15937;DHT22;9163;48.818;8.976;2023-07-16T00:33:14;18.30;99.90
15937;DHT22;9163;48.818;8.976;2023-07-16T00:35:46;18.20;99.90
15937;DHT22;9163;48.818;8.976;2023-07-16T00:38:14;18.30;99.90
15937;DHT22;9163;48.818;8.976;2023-07-16T00:40:41;18.20;99.90
15937;DHT22;9163;48.818;8.976;2023-07-16T00:43:08;18.20;99.90
15937;DHT22;9163;48.818;8.976;2023-07-16T00:45:36;18.20;99.90
15937;DHT22;9163;48.818;8.976;2023-07-16T00:48:06;18.20;99.90
15937;DHT22;9163;48.818;8.976;2023-07-16T00:50:34;18.30;99.90
15937;DHT22;9163;48.818;8.976;2023-07-16T00:53:05;18.30;99.90
15937;DHT22;9163;48.818;8.976;2023-07-16T00:55:33;18.30;99.90
15937;DHT22;9163;48.818;8.976;2023-07-16T00:58:03;18.20;99.90
15937;DHT22;9163;48.818;8.976;2023-07-16T01:00:31;18.20;99.90
15937;DHT22;9163;48.818;8.976;2023-07-16T01:02:58;18.10;99.90
15937;DHT22;9163;48.818;8.976;2023-07-16T01:05:31;18.00;99.90
15937;DHT22;9163;48.818;8.976;2023-07-16T01:08:05;18.00;99.90
15937;DHT22;9163;48.818;8.976;2023-07-16T01:10:33;18.00;99.90
15937;DHT22;9163;48.818;8.976;2023-07-16T01:13:01;17.90;99.90
15937;DHT22;9163;48.818;8.976;2023-07-16T01:15:28;17.90;99.90
15937;DHT22;9163;48.818;8.976;2023-07-16T01:17:56;17.80;99.90
15937;DHT22;9163;48.818;8.976;2023-07-16T01:20:24;17.80;99.90
15937;DHT22;9163;48.818;8.976;2023-07-16T01:23:12;17.70;99.90
15937;DHT22;9163;48.818;8.976;2023-07-16T01:26:05;17.60;99.90
15937;DHT22;9163;48.818;8.976;2023-07-16T01:28:53;17.70;99.90
15937;DHT22;9163;48.818;8.976;2023-07-16T01:31:27;17.70;99.90
15937;DHT22;9163;48.818;8.976;2023-07-16T01:33:55;17.60;99.90
15937;DHT22;9163;48.818;8.976;2023-07-16T01:36:23;17.60;99.90
15937;DHT22;9163;48.818;8.976;2023-07-16T01:38:51;17.60;99.90
15937;DHT22;9163;48.818;8.976;2023-07-16T01:41:18;17.50;99.90
15937;DHT22;9163;48.818;8.976;2023-07-16T01:43:46;17.50;99.90
15937;DHT22;9163;48.818;8.976;2023-07-16T01:46:13;17.40;99.90
15937;DHT22;9163;48.818;8.976;2023-07-16T01:48:41;17.30;99.90
15937;DHT22;9163;48.818;8.976;2023-07-16T01:51:09;17.30;99.90
15937;DHT22;9163;48.818;8.976;2023-07-16T01:53:39;17.40;99.90
15937;DHT22;9163;48.818;8.976;2023-07-16T01:56:07;17.30;99.90
15937;DHT22;9163;48.818;8.976;2023-07-16T01:58:34;17.30;99.90
15937;DHT22;9163;48.818;8.976;2023-07-16T02:01:01;17.30;99.90
15937;DHT22;9163;48.818;8.976;2023-07-16T02:03:28;17.50;99.90
15937;DHT22;9163;48.818;8.976;2023-07-16T02:05:57;17.50;99.90
15937;DHT22;9163;48.818;8.976;2023-07-16T02:08:24;17.50;99.90
15937;DHT22;9163;48.818;8.976;2023-07-16T02:10:51;17.40;99.90
15937;DHT22;9163;48.818;8.976;2023-07-16T02:13:19;17.30;99.90
15937;DHT22;9163;48.818;8.976;2023-07-16T02:15:46;17.30;99.90
15937;DHT22;9163;48.818;8.976;2023-07-16T02:18:14;17.30;99.90
15937;DHT22;9163;48.818;8.976;2023-07-16T02:20:43;17.40;99.90
15937;DHT22;9163;48.818;8.976;2023-07-16T02:23:11;17.40;99.90
15937;DHT22;9163;48.818;8.976;2023-07-16T02:25:39;17.50;99.90
15937;DHT22;9163;48.818;8.976;2023-07-16T02:28:06;17.30;99.90
15937;DHT22;9163;48.818;8.976;2023-07-16T02:30:33;17.30;99.90
15937;DHT22;9163;48.818;8.976;2023-07-16T02:33:01;17.10;99.90
15937;DHT22;9163;48.818;8.976;2023-07-16T02:35:28;17.10;99.90
15937;DHT22;9163;48.818;8.976;2023-07-16T02:37:55;17.00;99.90
15937;DHT22;9163;48.818;8.976;2023-07-16T02:40:24;16.90;99.90
15937;DHT22;9163;48.818;8.976;2023-07-16T02:42:51;16.80;99.90
15937;DHT22;9163;48.818;8.976;2023-07-16T02:45:18;16.90;99.90
15937;DHT22;9163;48.818;8.976;2023-07-16T02:47:45;17.00;99.90
15937;DHT22;9163;48.818;8.976;2023-07-16T02:50:13;16.90;99.90
15937;DHT22;9163;48.818;8.976;2023-07-16T02:52:40;16.90;99.90
15937;DHT22;9163;48.818;8.976;2023-07-16T02:55:08;16.90;99.90
15937;DHT22;9163;48.818;8.976;2023-07-16T02:57:36;16.90;99.90
15937;DHT22;9163;48.818;8.976;2023-07-16T03:00:05;17.00;99.90
15937;DHT22;9163;48.818;8.976;2023-07-16T03:02:32;17.00;99.90
15937;DHT22;9163;48.818;8.976;2023-07-16T03:04:59;17.00;99.90
15937;DHT22;9163;48.818;8.976;2023-07-16T03:07:27;17.00;99.90
15937;DHT22;9163;48.818;8.976;2023-07-16T03:09:54;16.90;99.90
15937;DHT22;9163;48.818;8.976;2023-07-16T03:12:21;17.00;99.90
15937;DHT22;9163;48.818;8.976;2023-07-16T03:14:50;17.00;99.90
15937;DHT22;9163;48.818;8.976;2023-07-16T03:17:20;17.00;99.90
15937;DHT22;9163;48.818;8.976;2023-07-16T03:19:47;16.90;99.90
15937;DHT22;9163;48.818;8.976;2023-07-16T03:22:15;16.90;99.90
15937;DHT22;9163;48.818;8.976;2023-07-16T03:24:42;16.90;99.90
15937;DHT22;9163;48.818;8.976;2023-07-16T03:27:09;16.90;99.90
15937;DHT22;9163;48.818;8.976;2023-07-16T03:29:36;16.80;99.90
15937;DHT22;9163;48.818;8.976;2023-07-16T03:32:06;16.90;99.90
15937;DHT22;9163;48.818;8.976;2023-07-16T03:34:33;16.80;99.90
15937;DHT22;9163;48.818;8.976;2023-07-16T03:37:00;16.80;99.90
15937;DHT22;9163;48.818;8.976;2023-07-16T03:39:28;16.80;99.90
15937;DHT22;9163;48.818;8.976;2023-07-16T03:41:55;16.80;99.90
15937;DHT22;9163;48.818;8.976;2023-07-16T03:44:22;16.80;99.90
15937;DHT22;9163;48.818;8.976;2023-07-16T03:46:49;16.80;99.90
15937;DHT22;9163;48.818;8.976;2023-07-16T03:49:18;16.70;99.90
15937;DHT22;9163;48.818;8.976;2023-07-16T03:51:45;16.70;99.90
15937;DHT22;9163;48.818;8.976;2023-07-16T03:54:12;16.60;99.90
15937;DHT22;9163;48.818;8.976;2023-07-16T03:56:39;16.60;99.90
15937;DHT22;9163;48.818;8.976;2023-07-16T03:59:07;16.60;99.90
15937;DHT22;9163;48.818;8.976;2023-07-16T04:01:34;16.60;99.90
15937;DHT22;9163;48.818;8.976;2023-07-16T04:04:01;16.60;99.90
15937;DHT22;9163;48.818;8.976;2023-07-16T04:06:30;16.50;99.90
15937;DHT22;9163;48.818;8.976;2023-07-16T04:08:57;16.50;99.90
15937;DHT22;9163;48.818;8.976;2023-07-16T04:11:24;16.50;99.90
15937;DHT22;9163;48.818;8.976;2023-07-16T04:13:52;16.50;99.90
15937;DHT22;9163;48.818;8.976;2023-07-16T04:16:19;16.60;99.90
15937;DHT22;9163;48.818;8.976;2023-07-16T04:18:46;16.70;99.90
15937;DHT22;9163;48.818;8.976;2023-07-16T04:21:13;16.70;99.90
15937;DHT22;9163;48.818;8.976;2023-07-16T04:23:42;16.70;99.90
15937;DHT22;9163;48.818;8.976;2023-07-16T04:26:09;16.70;99.90
15937;DHT22;9163;48.818;8.976;2023-07-16T04:28:36;16.70;99.90
15937;DHT22;9163;48.818;8.976;2023-07-16T04:31:05;16.70;99.90
15937;DHT22;9163;48.818;8.976;2023-07-16T04:33:32;16.60;99.90
15937;DHT22;9163;48.818;8.976;2023-07-16T04:35:59;16.60;99.90
15937;DHT22;9163;48.818;8.976;2023-07-16T04:38:26;16.50;99.90
15937;DHT22;9163;48.818;8.976;2023-07-16T04:40:55;16.60;99.90
15937;DHT22;9163;48.818;8.976;2023-07-16T04:43:22;16.50;99.90
15937;DHT22;9163;48.818;8.976;2023-07-16T04:45:49;16.50;99.90
15937;DHT22;9163;48.818;8.976;2023-07-16T04:48:17;16.50;99.90
15937;DHT22;9163;48.818;8.976;2023-07-16T04:50:44;16.40;99.90
15937;DHT22;9163;48.818;8.976;2023-07-16T04:53:11;16.50;99.90
15937;DHT22;9163;48.818;8.976;2023-07-16T04:55:39;16.40;99.90
15937;DHT22;9163;48.818;8.976;2023-07-16T04:58:09;16.30;99.90
15937;DHT22;9163;48.818;8.976;2023-07-16T05:00:36;16.30;99.90
15937;DHT22;9163;48.818;8.976;2023-07-16T05:03:03;16.30;99.90
15937;DHT22;9163;48.818;8.976;2023-07-16T05:05:31;16.40;99.90
15937;DHT22;9163;48.818;8.976;2023-07-16T05:07:58;16.30;99.90
15937;DHT22;9163;48.818;8.976;2023-07-16T05:10:26;16.30;99.90
15937;DHT22;9163;48.818;8.976;2023-07-16T05:12:53;16.40;99.90
15937;DHT22;9163;48.818;8.976;2023-07-16T05:15:22;16.50;99.90
15937;DHT22;9163;48.818;8.976;2023-07-16T05:17:49;16.50;99.90
15937;DHT22;9163;48.818;8.976;2023-07-16T05:20:16;16.60;99.90
15937;DHT22;9163;48.818;8.976;2023-07-16T05:22:44;16.70;99.90
15937;DHT22;9163;48.818;8.976;2023-07-16T05:25:11;16.80;99.90
15937;DHT22;9163;48.818;8.976;2023-07-16T05:27:38;16.70;99.90
15937;DHT22;9163;48.818;8.976;2023-07-16T05:30:06;16.70;99.90
15937;DHT22;9163;48.818;8.976;2023-07-16T05:32:35;16.90;99.90
15937;DHT22;9163;48.818;8.976;2023-07-16T05:35:03;16.90;99.90
15937;DHT22;9163;48.818;8.976;2023-07-16T05:37:30;17.00;99.90
15937;DHT22;9163;48.818;8.976;2023-07-16T05:39:58;17.00;99.90
15937;DHT22;9163;48.818;8.976;2023-07-16T05:42:25;17.10;99.90
15937;DHT22;9163;48.818;8.976;2023-07-16T05:44:52;17.20;99.90
15937;DHT22;9163;48.818;8.976;2023-07-16T05:47:20;17.30;99.90
15937;DHT22;9163;48.818;8.976;2023-07-16T05:49:48;17.40;99.90
15937;DHT22;9163;48.818;8.976;2023-07-16T05:52:15;17.40;99.90
15937;DHT22;9163;48.818;8.976;2023-07-16T05:54:43;17.40;99.90
15937;DHT22;9163;48.818;8.976;2023-07-16T05:57:10;17.40;99.90
15937;DHT22;9163;48.818;8.976;2023-07-16T05:59:38;17.20;99.90
15937;DHT22;9163;48.818;8.976;2023-07-16T06:02:06;17.30;99.90
15937;DHT22;9163;48.818;8.976;2023-07-16T06:04:33;17.20;99.90
15937;DHT22;9163;48.818;8.976;2023-07-16T06:07:02;17.20;99.90
15937;DHT22;9163;48.818;8.976;2023-07-16T06:09:30;17.20;99.90
15937;DHT22;9163;48.818;8.976;2023-07-16T06:11:57;17.30;99.90
15937;DHT22;9163;48.818;8.976;2023-07-16T06:14:24;17.40;99.90
15937;DHT22;9163;48.818;8.976;2023-07-16T06:16:51;17.40;99.90
15937;DHT22;9163;48.818;8.976;2023-07-16T06:19:19;17.40;99.90
15937;DHT22;9163;48.818;8.976;2023-07-16T06:21:46;17.50;99.90
15937;DHT22;9163;48.818;8.976;2023-07-16T06:24:17;17.40;99.90
15937;DHT22;9163;48.818;8.976;2023-07-16T06:26:44;17.50;99.90
15937;DHT22;9163;48.818;8.976;2023-07-16T06:29:13;17.70;99.90
15937;DHT22;9163;48.818;8.976;2023-07-16T06:31:42;17.70;99.90
15937;DHT22;9163;48.818;8.976;2023-07-16T06:34:10;17.70;99.90
15937;DHT22;9163;48.818;8.976;2023-07-16T06:36:38;17.80;99.90
15937;DHT22;9163;48.818;8.976;2023-07-16T06:39:06;17.70;99.90
15937;DHT22;9163;48.818;8.976;2023-07-16T06:41:35;17.80;99.90
15937;DHT22;9163;48.818;8.976;2023-07-16T06:44:02;17.80;99.90
15937;DHT22;9163;48.818;8.976;2023-07-16T06:46:29;18.00;99.90
15937;DHT22;9163;48.818;8.976;2023-07-16T06:48:57;17.80;99.90
15937;DHT22;9163;48.818;8.976;2023-07-16T06:51:24;18.00;99.90
15937;DHT22;9163;48.818;8.976;2023-07-16T06:53:51;18.10;99.90
15937;DHT22;9163;48.818;8.976;2023-07-16T06:56:19;17.90;99.90
15937;DHT22;9163;48.818;8.976;2023-07-16T06:58:47;18.20;99.90
15937;DHT22;9163;48.818;8.976;2023-07-16T07:01:14;18.10;99.90
15937;DHT22;9163;48.818;8.976;2023-07-16T07:03:42;18.10;99.90
15937;DHT22;9163;48.818;8.976;2023-07-16T07:06:09;18.20;99.90
15937;DHT22;9163;48.818;8.976;2023-07-16T07:08:36;18.40;99.90
15937;DHT22;9163;48.818;8.976;2023-07-16T07:11:04;18.40;99.90
15937;DHT22;9163;48.818;8.976;2023-07-16T07:13:31;18.50;99.90
15937;DHT22;9163;48.818;8.976;2023-07-16T07:16:00;18.70;99.90
15937;DHT22;9163;48.818;8.976;2023-07-16T07:18:27;18.70;99.90
15937;DHT22;9163;48.818;8.976;2023-07-16T07:20:54;18.80;99.90
15937;DHT22;9163;48.818;8.976;2023-07-16T07:23:22;18.80;99.90
15937;DHT22;9163;48.818;8.976;2023-07-16T07:25:49;18.80;99.90
15937;DHT22;9163;48.818;8.976;2023-07-16T07:28:17;18.80;99.90
15937;DHT22;9163;48.818;8.976;2023-07-16T07:30:44;19.10;99.90
15937;DHT22;9163;48.818;8.976;2023-07-16T07:33:13;19.00;99.90
15937;DHT22;9163;48.818;8.976;2023-07-16T07:35:40;19.00;99.90
15937;DHT22;9163;48.818;8.976;2023-07-16T07:38:08;18.90;99.90
15937;DHT22;9163;48.818;8.976;2023-07-16T07:40:35;19.20;99.90
15937;DHT22;9163;48.818;8.976;2023-07-16T07:43:02;19.30;99.90
15937;DHT22;9163;48.818;8.976;2023-07-16T07:45:29;19.50;99.90
15937;DHT22;9163;48.818;8.976;2023-07-16T07:47:57;19.60;99.90
15937;DHT22;9163;48.818;8.976;2023-07-16T07:50:25;19.70;99.90
15937;DHT22;9163;48.818;8.976;2023-07-16T07:52:55;19.80;91.90
15937;DHT22;9163;48.818;8.976;2023-07-16T07:55:22;19.90;95.70
15937;DHT22;9163;48.818;8.976;2023-07-16T07:57:49;20.00;92.00
15937;DHT22;9163;48.818;8.976;2023-07-16T08:00:16;19.80;70.50
15937;DHT22;9163;48.818;8.976;2023-07-16T08:02:44;19.50;91.10
15937;DHT22;9163;48.818;8.976;2023-07-16T08:05:11;19.80;94.90
15937;DHT22;9163;48.818;8.976;2023-07-16T08:07:39;20.20;87.40
15937;DHT22;9163;48.818;8.976;2023-07-16T08:10:07;20.70;82.40
15937;DHT22;9163;48.818;8.976;2023-07-16T08:12:34;20.50;52.60
15937;DHT22;9163;48.818;8.976;2023-07-16T08:15:02;20.40;50.70
15937;DHT22;9163;48.818;8.976;2023-07-16T08:17:29;20.30;57.00
15937;DHT22;9163;48.818;8.976;2023-07-16T08:19:56;20.40;52.90
15937;DHT22;9163;48.818;8.976;2023-07-16T08:22:24;20.70;47.90
15937;DHT22;9163;48.818;8.976;2023-07-16T08:24:52;21.10;45.60
15937;DHT22;9163;48.818;8.976;2023-07-16T08:27:19;21.50;16.30
15937;DHT22;9163;48.818;8.976;2023-07-16T08:29:47;21.90;17.30
15937;DHT22;9163;48.818;8.976;2023-07-16T08:32:14;21.50;14.70
15937;DHT22;9163;48.818;8.976;2023-07-16T08:34:41;21.30;14.30
15937;DHT22;9163;48.818;8.976;2023-07-16T08:37:09;21.40;30.80
15937;DHT22;9163;48.818;8.976;2023-07-16T08:39:36;21.00;20.10
15937;DHT22;9163;48.818;8.976;2023-07-16T08:42:05;20.60;22.20
15937;DHT22;9163;48.818;8.976;2023-07-16T08:44:33;20.50;21.80
15937;DHT22;9163;48.818;8.976;2023-07-16T08:47:01;20.30;18.40
15937;DHT22;9163;48.818;8.976;2023-07-16T08:49:30;20.10;22.60
15937;DHT22;9163;48.818;8.976;2023-07-16T08:51:57;20.00;20.60
15937;DHT22;9163;48.818;8.976;2023-07-16T08:54:24;20.10;21.70
15937;DHT22;9163;48.818;8.976;2023-07-16T08:56:52;20.20;23.60
15937;DHT22;9163;48.818;8.976;2023-07-16T08:59:21;20.60;16.80
15937;DHT22;9163;48.818;8.976;2023-07-16T09:01:49;20.70;10.80
15937;DHT22;9163;48.818;8.976;2023-07-16T09:04:16;20.90;8.60
15937;DHT22;9163;48.818;8.976;2023-07-16T09:06:43;21.40;2.50
15937;DHT22;9163;48.818;8.976;2023-07-16T09:09:19;21.50;3.90
15937;DHT22;9163;48.818;8.976;2023-07-16T09:11:47;21.70;4.60
15937;DHT22;9163;48.818;8.976;2023-07-16T09:14:16;22.10;1.00
15937;DHT22;9163;48.818;8.976;2023-07-16T09:16:47;22.10;1.00
15937;DHT22;9163;48.818;8.976;2023-07-16T09:19:15;22.20;1.00
15937;DHT22;9163;48.818;8.976;2023-07-16T09:21:46;22.10;1.00
15937;DHT22;9163;48.818;8.976;2023-07-16T09:24:14;22.30;1.00
15937;DHT22;9163;48.818;8.976;2023-07-16T09:26:48;22.00;1.00
15937;DHT22;9163;48.818;8.976;2023-07-16T09:29:15;21.90;1.00
15937;DHT22;9163;48.818;8.976;2023-07-16T09:31:53;22.30;1.00
15937;DHT22;9163;48.818;8.976;2023-07-16T09:34:21;22.50;1.00
15937;DHT22;9163;48.818;8.976;2023-07-16T09:36:48;23.10;1.00
15937;DHT22;9163;48.818;8.976;2023-07-16T09:39:17;23.10;1.00
15937;DHT22;9163;48.818;8.976;2023-07-16T09:41:46;22.40;1.00
15937;DHT22;9163;48.818;8.976;2023-07-16T09:44:14;23.40;1.00
15937;DHT22;9163;48.818;8.976;2023-07-16T09:46:42;23.80;1.00
15937;DHT22;9163;48.818;8.976;2023-07-16T09:49:11;23.80;1.00
15937;DHT22;9163;48.818;8.976;2023-07-16T09:51:39;23.70;1.00
15937;DHT22;9163;48.818;8.976;2023-07-16T09:54:06;24.10;1.00
15937;DHT22;9163;48.818;8.976;2023-07-16T09:56:36;24.40;1.00
15937;DHT22;9163;48.818;8.976;2023-07-16T09:59:08;25.00;1.00
15937;DHT22;9163;48.818;8.976;2023-07-16T10:01:37;24.70;1.00
15937;DHT22;9163;48.818;8.976;2023-07-16T10:04:15;24.30;1.00
15937;DHT22;9163;48.818;8.976;2023-07-16T10:06:52;24.30;1.00
15937;DHT22;9163;48.818;8.976;2023-07-16T10:09:33;24.00;1.00
15937;DHT22;9163;48.818;8.976;2023-07-16T10:12:16;23.80;1.00
15937;DHT22;9163;48.818;8.976;2023-07-16T10:14:45;23.50;1.00
15937;DHT22;9163;48.818;8.976;2023-07-16T10:17:13;24.20;1.00
15937;DHT22;9163;48.818;8.976;2023-07-16T10:19:50;24.30;1.00
15937;DHT22;9163;48.818;8.976;2023-07-16T10:22:17;24.50;1.00
15937;DHT22;9163;48.818;8.976;2023-07-16T10:24:51;24.10;1.00
15937;DHT22;9163;48.818;8.976;2023-07-16T10:27:30;24.10;1.00
15937;DHT22;9163;48.818;8.976;2023-07-16T10:29:58;24.10;1.00
15937;DHT22;9163;48.818;8.976;2023-07-16T10:32:27;25.50;1.00
15937;DHT22;9163;48.818;8.976;2023-07-16T10:34:57;25.90;1.00
15937;DHT22;9163;48.818;8.976;2023-07-16T10:37:25;27.00;1.00
15937;DHT22;9163;48.818;8.976;2023-07-16T10:39:53;27.00;1.00
15937;DHT22;9163;48.818;8.976;2023-07-16T10:42:22;27.00;1.00
15937;DHT22;9163;48.818;8.976;2023-07-16T10:44:50;27.40;1.00
15937;DHT22;9163;48.818;8.976;2023-07-16T10:47:19;27.30;1.00
15937;DHT22;9163;48.818;8.976;2023-07-16T10:49:47;27.30;1.00
15937;DHT22;9163;48.818;8.976;2023-07-16T10:52:16;27.40;1.00
15937;DHT22;9163;48.818;8.976;2023-07-16T10:54:43;27.10;1.00
15937;DHT22;9163;48.818;8.976;2023-07-16T10:57:11;28.20;1.00
15937;DHT22;9163;48.818;8.976;2023-07-16T10:59:39;28.60;1.00
15937;DHT22;9163;48.818;8.976;2023-07-16T11:02:12;28.50;1.00
15937;DHT22;9163;48.818;8.976;2023-07-16T11:04:39;27.30;1.00
15937;DHT22;9163;48.818;8.976;2023-07-16T11:07:07;26.50;1.00
15937;DHT22;9163;48.818;8.976;2023-07-16T11:09:41;26.80;1.00
15937;DHT22;9163;48.818;8.976;2023-07-16T11:12:11;27.10;1.00
15937;DHT22;9163;48.818;8.976;2023-07-16T11:14:42;27.60;1.00
15937;DHT22;9163;48.818;8.976;2023-07-16T11:17:09;26.90;1.00
15937;DHT22;9163;48.818;8.976;2023-07-16T11:19:37;26.90;1.00
15937;DHT22;9163;48.818;8.976;2023-07-16T11:22:06;26.40;1.00
15937;DHT22;9163;48.818;8.976;2023-07-16T11:24:38;27.20;1.00
15937;DHT22;9163;48.818;8.976;2023-07-16T11:27:13;27.30;1.00
15937;DHT22;9163;48.818;8.976;2023-07-16T11:29:45;27.70;1.00
15937;DHT22;9163;48.818;8.976;2023-07-16T11:32:14;27.40;1.00
15937;DHT22;9163;48.818;8.976;2023-07-16T11:34:52;27.80;1.00
15937;DHT22;9163;48.818;8.976;2023-07-16T11:37:20;26.70;1.00
15937;DHT22;9163;48.818;8.976;2023-07-16T11:39:48;27.40;1.00
15937;DHT22;9163;48.818;8.976;2023-07-16T11:42:23;27.30;1.00
15937;DHT22;9163;48.818;8.976;2023-07-16T11:44:51;26.60;1.00
15937;DHT22;9163;48.818;8.976;2023-07-16T11:47:18;27.10;1.00
15937;DHT22;9163;48.818;8.976;2023-07-16T11:49:45;27.40;1.00
15937;DHT22;9163;48.818;8.976;2023-07-16T11:52:12;28.00;1.00
15937;DHT22;9163;48.818;8.976;2023-07-16T11:54:40;28.50;1.00
15937;DHT22;9163;48.818;8.976;2023-07-16T11:57:07;28.70;1.00
15937;DHT22;9163;48.818;8.976;2023-07-16T11:59:35;27.30;1.00
15937;DHT22;9163;48.818;8.976;2023-07-16T12:02:03;27.40;1.00
15937;DHT22;9163;48.818;8.976;2023-07-16T12:04:30;27.40;1.00
15937;DHT22;9163;48.818;8.976;2023-07-16T12:06:58;27.70;1.00
15937;DHT22;9163;48.818;8.976;2023-07-16T12:09:25;27.70;1.00
15937;DHT22;9163;48.818;8.976;2023-07-16T12:11:52;27.80;1.00
15937;DHT22;9163;48.818;8.976;2023-07-16T12:14:19;28.30;1.00
15937;DHT22;9163;48.818;8.976;2023-07-16T12:16:48;28.40;1.00
15937;DHT22;9163;48.818;8.976;2023-07-16T12:19:15;29.30;1.00
15937;DHT22;9163;48.818;8.976;2023-07-16T12:21:43;29.90;1.00
15937;DHT22;9163;48.818;8.976;2023-07-16T12:24:10;30.20;1.00
15937;DHT22;9163;48.818;8.976;2023-07-16T12:26:37;30.10;1.00
15937;DHT22;9163;48.818;8.976;2023-07-16T12:29:05;29.90;1.00
15937;DHT22;9163;48.818;8.976;2023-07-16T12:31:32;29.90;1.00
15937;DHT22;9163;48.818;8.976;2023-07-16T12:34:01;30.00;1.00
15937;DHT22;9163;48.818;8.976;2023-07-16T12:36:29;30.30;1.00
15937;DHT22;9163;48.818;8.976;2023-07-16T12:38:56;30.40;1.00
15937;DHT22;9163;48.818;8.976;2023-07-16T12:41:24;29.90;1.00
15937;DHT22;9163;48.818;8.976;2023-07-16T12:43:51;29.40;1.00
15937;DHT22;9163;48.818;8.976;2023-07-16T12:46:18;29.10;1.00
15937;DHT22;9163;48.818;8.976;2023-07-16T12:48:46;29.40;1.00
15937;DHT22;9163;48.818;8.976;2023-07-16T12:51:14;29.00;1.00
15937;DHT22;9163;48.818;8.976;2023-07-16T12:53:42;29.20;1.00
15937;DHT22;9163;48.818;8.976;2023-07-16T12:56:09;29.20;1.00
15937;DHT22;9163;48.818;8.976;2023-07-16T12:58:36;28.90;1.00
15937;DHT22;9163;48.818;8.976;2023-07-16T13:01:04;29.50;1.00
15937;DHT22;9163;48.818;8.976;2023-07-16T13:03:31;28.90;1.00
15937;DHT22;9163;48.818;8.976;2023-07-16T13:05:58;28.60;1.00
15937;DHT22;9163;48.818;8.976;2023-07-16T13:08:27;28.80;1.00
15937;DHT22;9163;48.818;8.976;2023-07-16T13:10:54;28.80;1.00
15937;DHT22;9163;48.818;8.976;2023-07-16T13:13:22;28.60;1.00
15937;DHT22;9163;48.818;8.976;2023-07-16T13:15:49;28.70;1.00
15937;DHT22;9163;48.818;8.976;2023-07-16T13:18:16;28.80;1.00
15937;DHT22;9163;48.818;8.976;2023-07-16T13:20:44;28.90;1.00
15937;DHT22;9163;48.818;8.976;2023-07-16T13:23:12;29.00;1.00
15937;DHT22;9163;48.818;8.976;2023-07-16T13:25:43;28.90;1.00
15937;DHT22;9163;48.818;8.976;2023-07-16T13:28:11;29.60;1.00
15937;DHT22;9163;48.818;8.976;2023-07-16T13:30:38;29.90;1.00
15937;DHT22;9163;48.818;8.976;2023-07-16T13:33:05;30.00;1.00
15937;DHT22;9163;48.818;8.976;2023-07-16T13:35:32;30.10;1.00
15937;DHT22;9163;48.818;8.976;2023-07-16T13:38:00;30.10;1.00
15937;DHT22;9163;48.818;8.976;2023-07-16T13:40:28;30.40;1.00
15937;DHT22;9163;48.818;8.976;2023-07-16T13:42:57;30.90;1.00
15937;DHT22;9163;48.818;8.976;2023-07-16T13:45:24;31.40;1.00
15937;DHT22;9163;48.818;8.976;2023-07-16T13:47:51;31.10;1.00
15937;DHT22;9163;48.818;8.976;2023-07-16T13:50:19;30.70;1.00
15937;DHT22;9163;48.818;8.976;2023-07-16T13:52:47;30.00;1.00
15937;DHT22;9163;48.818;8.976;2023-07-16T13:55:14;30.40;99.90
15937;DHT22;9163;48.818;8.976;2023-07-16T13:57:42;30.20;1.00
15937;DHT22;9163;48.818;8.976;2023-07-16T14:00:12;29.90;1.00
15937;DHT22;9163;48.818;8.976;2023-07-16T14:02:42;29.90;99.90
15937;DHT22;9163;48.818;8.976;2023-07-16T14:05:10;29.90;99.90
15937;DHT22;9163;48.818;8.976;2023-07-16T14:07:37;29.80;99.90
15937;DHT22;9163;48.818;8.976;2023-07-16T14:10:05;29.70;99.90
15937;DHT22;9163;48.818;8.976;2023-07-16T14:12:32;29.70;99.90
15937;DHT22;9163;48.818;8.976;2023-07-16T14:15:00;29.60;99.90
15937;DHT22;9163;48.818;8.976;2023-07-16T14:17:29;29.70;99.90
15937;DHT22;9163;48.818;8.976;2023-07-16T14:19:56;29.60;99.90
15937;DHT22;9163;48.818;8.976;2023-07-16T14:22:24;29.40;99.90
15937;DHT22;9163;48.818;8.976;2023-07-16T14:24:53;29.20;99.90
15937;DHT22;9163;48.818;8.976;2023-07-16T14:27:21;29.10;99.90
15937;DHT22;9163;48.818;8.976;2023-07-16T14:29:48;29.10;99.90
15937;DHT22;9163;48.818;8.976;2023-07-16T14:32:16;29.10;99.90
15937;DHT22;9163;48.818;8.976;2023-07-16T14:34:44;28.70;99.90
15937;DHT22;9163;48.818;8.976;2023-07-16T14:37:12;28.70;99.90
15937;DHT22;9163;48.818;8.976;2023-07-16T14:39:39;28.70;99.90
15937;DHT22;9163;48.818;8.976;2023-07-16T14:42:07;28.60;99.90
15937;DHT22;9163;48.818;8.976;2023-07-16T14:44:34;28.60;99.90
15937;DHT22;9163;48.818;8.976;2023-07-16T14:47:02;28.70;99.90
15937;DHT22;9163;48.818;8.976;2023-07-16T14:49:30;28.80;99.90
15937;DHT22;9163;48.818;8.976;2023-07-16T14:51:59;28.70;99.90
15937;DHT22;9163;48.818;8.976;2023-07-16T14:54:26;28.70;99.90
15937;DHT22;9163;48.818;8.976;2023-07-16T14:56:53;28.80;99.90
15937;DHT22;9163;48.818;8.976;2023-07-16T14:59:21;28.70;99.90
15937;DHT22;9163;48.818;8.976;2023-07-16T15:01:49;28.50;99.90
15937;DHT22;9163;48.818;8.976;2023-07-16T15:04:16;28.40;99.90
15937;DHT22;9163;48.818;8.976;2023-07-16T15:06:44;27.70;99.90
15937;DHT22;9163;48.818;8.976;2023-07-16T15:09:13;27.50;99.90
15937;DHT22;9163;48.818;8.976;2023-07-16T15:11:40;27.40;99.90
15937;DHT22;9163;48.818;8.976;2023-07-16T15:14:07;27.40;99.90
15937;DHT22;9163;48.818;8.976;2023-07-16T15:16:35;27.40;99.90
15937;DHT22;9163;48.818;8.976;2023-07-16T15:19:02;27.20;99.90
15937;DHT22;9163;48.818;8.976;2023-07-16T15:21:29;27.10;99.90
15937;DHT22;9163;48.818;8.976;2023-07-16T15:23:57;27.30;99.90
15937;DHT22;9163;48.818;8.976;2023-07-16T15:26:25;28.00;99.90
15937;DHT22;9163;48.818;8.976;2023-07-16T15:28:54;28.40;99.90
15937;DHT22;9163;48.818;8.976;2023-07-16T15:31:21;28.60;99.90
15937;DHT22;9163;48.818;8.976;2023-07-16T15:33:53;28.90;99.90
15937;DHT22;9163;48.818;8.976;2023-07-16T15:36:20;28.50;99.90
15937;DHT22;9163;48.818;8.976;2023-07-16T15:38:48;28.20;99.90
15937;DHT22;9163;48.818;8.976;2023-07-16T15:41:16;27.80;91.10
15937;DHT22;9163;48.818;8.976;2023-07-16T15:43:48;27.70;99.90
15937;DHT22;9163;48.818;8.976;2023-07-16T15:46:15;27.80;82.30
15937;DHT22;9163;48.818;8.976;2023-07-16T15:48:43;28.00;99.90
15937;DHT22;9163;48.818;8.976;2023-07-16T15:51:11;28.20;99.90
15937;DHT22;9163;48.818;8.976;2023-07-16T15:53:39;28.40;99.90
15937;DHT22;9163;48.818;8.976;2023-07-16T15:56:06;28.40;45.90